Time;durP1;ratioP1;P1;durP2;ratioP2;P2;SDS_P1;SDS_P2;PMS_P1;PMS_P2;Temp;Humidity;BMP_temperature;BMP_pressure;BME280_temperature;BME280_humidity;BME280_pressure;Samples;Min_cycle;Max_cycle;Signal;HPM_P1;HPM_P2
2021/08/26 00:00:08;;;;;;;;;12.25;12.25;;;;;;;;5033629;28;8962;-83
2021/08/26 00:08:06;;;;;;;;;6.50;6.50;;;;;;;;5027744;28;8863;-84
2021/08/26 00:10:35;;;;;;;;;9.50;9.50;;;;;;;;5015313;28;8884;-84
2021/08/26 00:13:06;;;;;;;;;10.75;10.75;;;;;;;;5014060;28;8870;-82
2021/08/26 00:15:33;;;;;;;;;12.25;12.25;;;;;;;;5008160;28;8944;-82
2021/08/26 00:18:00;;;;;;;;;8.50;8.00;;;;;;;;5020267;28;8908;-84
2021/08/26 00:20:27;;;;;;;;;10.75;10.75;;;;;;;;5021196;28;8909;-83
2021/08/26 00:22:55;;;;;;;;;8.75;8.75;;;;;;;;5010708;28;8879;-82
2021/08/26 00:25:22;;;;;;;;;10.00;9.50;;;;;;;;5002801;28;9664;-83
2021/08/26 00:27:51;;;;;;;;;11.75;8.50;;;;;;;;5015305;28;8896;-84
2021/08/26 00:30:20;;;;;;;;;8.25;8.25;;;;;;;;5012207;28;8859;-84
2021/08/26 00:32:47;;;;;;;;;9.50;9.50;;;;;;;;5039185;28;9084;-84
2021/08/26 00:35:14;;;;;;;;;14.25;9.25;;;;;;;;5038584;28;8892;-84
2021/08/26 00:37:41;;;;;;;;;6.25;6.25;;;;;;;;5039778;28;9438;-80
2021/08/26 00:40:10;;;;;;;;;7.25;7.25;;;;;;;;5034952;28;8872;-83
2021/08/26 00:42:37;;;;;;;;;11.50;7.50;;;;;;;;5030398;28;8875;-82
2021/08/26 00:45:08;;;;;;;;;7.75;7.75;;;;;;;;5027129;28;8857;-82
2021/08/26 00:47:35;;;;;;;;;8.75;8.75;;;;;;;;5039590;28;9693;-83
2021/08/26 00:50:03;;;;;;;;;9.50;9.00;;;;;;;;5028457;28;8894;-83
2021/08/26 00:52:30;;;;;;;;;11.00;9.75;;;;;;;;5037784;28;8889;-82
2021/08/26 00:54:58;;;;;;;;;8.75;7.50;;;;;;;;5033622;28;8990;-84
2021/08/26 00:57:26;;;;;;;;;7.00;7.00;;;;;;;;5026312;28;8879;-85
2021/08/26 00:59:55;;;;;;;;;8.00;7.50;;;;;;;;5032270;28;8988;-76
2021/08/26 01:02:28;;;;;;;;;9.00;9.00;;;;;;;;5034149;28;8828;-82
2021/08/26 01:05:03;;;;;;;;;9.50;9.50;;;;;;;;5027336;28;8871;-81
2021/08/26 01:07:32;;;;;;;;;9.50;9.50;;;;;;;;5035003;28;8878;-82
2021/08/26 01:10:04;;;;;;;;;8.50;8.50;;;;;;;;5036201;28;8859;-81
2021/08/26 01:12:32;;;;;;;;;9.00;8.00;;;;;;;;5031661;28;8872;-82
2021/08/26 01:15:00;;;;;;;;;9.25;9.25;;;;;;;;5026670;28;8865;-82
2021/08/26 01:17:30;;;;;;;;;9.00;9.00;;;;;;;;5031914;28;8875;-81
2021/08/26 01:19:59;;;;;;;;;11.00;8.25;;;;;;;;5032625;28;8875;-81
2021/08/26 01:22:27;;;;;;;;;6.00;6.00;;;;;;;;5030895;28;8868;-80
2021/08/26 01:24:58;;;;;;;;;7.50;7.50;;;;;;;;5028383;28;8875;-81
2021/08/26 01:27:29;;;;;;;;;8.75;8.75;;;;;;;;5036418;28;8881;-81
2021/08/26 01:29:57;;;;;;;;;6.00;6.00;;;;;;;;5014287;28;8836;-80
2021/08/26 01:32:25;;;;;;;;;8.75;8.75;;;;;;;;5016300;28;8819;-82
2021/08/26 01:34:53;;;;;;;;;8.00;8.00;;;;;;;;5014938;28;8874;-81
2021/08/26 01:37:21;;;;;;;;;5.00;5.00;;;;;;;;5022484;28;8905;-81
2021/08/26 01:39:50;;;;;;;;;6.50;6.50;;;;;;;;5025880;28;8894;-80
2021/08/26 01:42:19;;;;;;;;;8.50;7.00;;;;;;;;5013894;28;8884;-80
2021/08/26 01:44:48;;;;;;;;;8.25;8.25;;;;;;;;5055067;28;8880;-81
2021/08/26 01:47:16;;;;;;;;;11.50;9.75;;;;;;;;5008288;28;9620;-81
2021/08/26 01:49:44;;;;;;;;;7.75;7.75;;;;;;;;5022264;28;8872;-82
2021/08/26 01:52:11;;;;;;;;;5.75;5.75;;;;;;;;5024579;28;8865;-82
2021/08/26 01:54:39;;;;;;;;;6.00;6.00;;;;;;;;5033146;28;8871;-82
2021/08/26 01:57:06;;;;;;;;;7.50;7.50;;;;;;;;5039069;28;8892;-81
2021/08/26 01:59:33;;;;;;;;;9.75;7.25;;;;;;;;5035913;28;8907;-79
2021/08/26 02:02:02;;;;;;;;;8.50;7.00;;;;;;;;5029732;28;8815;-81
2021/08/26 02:04:29;;;;;;;;;9.00;9.00;;;;;;;;5024877;28;8882;-82
2021/08/26 02:06:57;;;;;;;;;7.25;7.25;;;;;;;;5043773;28;8869;-82
2021/08/26 02:09:24;;;;;;;;;11.25;8.50;;;;;;;;5036699;28;8907;-84
2021/08/26 02:11:51;;;;;;;;;7.00;7.00;;;;;;;;5030543;28;8857;-84
2021/08/26 02:14:18;;;;;;;;;7.25;7.25;;;;;;;;5037522;28;8864;-83
2021/08/26 02:16:46;;;;;;;;;11.00;9.00;;;;;;;;5037818;28;8868;-83
2021/08/26 02:19:14;;;;;;;;;9.00;9.00;;;;;;;;5023936;28;8976;-82
2021/08/26 02:21:42;;;;;;;;;7.75;7.75;;;;;;;;5030272;28;8863;-80
2021/08/26 02:24:09;;;;;;;;;6.25;6.25;;;;;;;;5025727;28;8879;-83
2021/08/26 02:26:37;;;;;;;;;6.00;6.00;;;;;;;;5031333;28;8867;-84
2021/08/26 02:29:05;;;;;;;;;6.00;6.00;;;;;;;;5042748;28;8865;-81
2021/08/26 02:31:32;;;;;;;;;5.33;5.00;;;;;;;;5032586;28;8824;-81
2021/08/26 02:33:59;;;;;;;;;6.67;6.67;;;;;;;;5034917;28;9116;-82
2021/08/26 02:36:28;;;;;;;;;6.00;5.00;;;;;;;;5029117;28;8982;-81
2021/08/26 02:38:56;;;;;;;;;9.00;6.67;;;;;;;;5034256;28;8946;-77
2021/08/26 02:41:24;;;;;;;;;6.67;6.67;;;;;;;;5032047;28;8984;-83
2021/08/26 02:43:51;;;;;;;;;4.00;4.00;;;;;;;;5040655;28;9027;-79
2021/08/26 02:46:18;;;;;;;;;6.75;6.75;;;;;;;;5029069;28;8873;-81
2021/08/26 02:48:45;;;;;;;;;8.33;5.67;;;;;;;;5040335;28;8873;-83
2021/08/26 02:51:13;;;;;;;;;9.25;5.00;;;;;;;;5028709;28;9006;-83
2021/08/26 02:53:42;;;;;;;;;8.00;8.00;;;;;;;;5007376;28;8963;-82
2021/08/26 02:56:10;;;;;;;;;4.33;4.33;;;;;;;;5022632;28;8953;-81
2021/08/26 02:58:37;;;;;;;;;4.67;4.67;;;;;;;;5023111;28;8962;-82
2021/08/26 03:01:04;;;;;;;;;6.33;4.33;;;;;;;;5034265;28;8986;-82
2021/08/26 03:03:31;;;;;;;;;6.33;6.33;;;;;;;;5034038;28;9027;-82
2021/08/26 03:05:59;;;;;;;;;6.33;6.33;;;;;;;;5026873;28;9022;-80
2021/08/26 03:08:26;;;;;;;;;5.00;5.00;;;;;;;;5023555;28;9129;-82
2021/08/26 03:10:55;;;;;;;;;4.00;4.00;;;;;;;;5027708;28;9033;-82
2021/08/26 03:13:22;;;;;;;;;5.67;5.67;;;;;;;;5034392;28;8981;-76
2021/08/26 03:15:49;;;;;;;;;4.33;3.00;;;;;;;;5038814;28;9086;-82
2021/08/26 03:18:17;;;;;;;;;4.00;4.00;;;;;;;;5036225;28;9007;-82
2021/08/26 03:20:44;;;;;;;;;3.00;3.00;;;;;;;;5036649;28;8989;-82
2021/08/26 03:23:12;;;;;;;;;2.75;2.75;;;;;;;;5034806;28;8964;-82
2021/08/26 03:25:40;;;;;;;;;3.25;3.25;;;;;;;;5026921;28;9028;-82
2021/08/26 03:28:08;;;;;;;;;2.00;2.00;;;;;;;;5044621;28;8869;-84
2021/08/26 03:30:36;;;;;;;;;3.25;3.25;;;;;;;;5042569;28;8835;-83
2021/08/26 03:33:03;;;;;;;;;2.00;2.00;;;;;;;;5035019;28;8864;-83
2021/08/26 03:35:31;;;;;;;;;3.25;3.25;;;;;;;;5043093;28;9681;-81
2021/08/26 03:37:58;;;;;;;;;5.75;4.75;;;;;;;;5037428;28;8883;-82
2021/08/26 03:40:26;;;;;;;;;3.25;3.25;;;;;;;;5041175;28;8866;-82
2021/08/26 03:42:53;;;;;;;;;3.50;3.50;;;;;;;;5027232;28;8879;-82
2021/08/26 03:45:22;;;;;;;;;6.00;3.00;;;;;;;;5028034;28;8923;-84
2021/08/26 03:47:49;;;;;;;;;2.50;2.50;;;;;;;;5027140;28;8892;-83
2021/08/26 03:50:17;;;;;;;;;2.50;2.50;;;;;;;;5021418;28;8874;-83
2021/08/26 03:52:44;;;;;;;;;3.50;3.50;;;;;;;;5021790;28;8871;-81
2021/08/26 03:55:12;;;;;;;;;3.75;3.00;;;;;;;;5038478;28;8892;-81
2021/08/26 03:57:39;;;;;;;;;3.50;2.00;;;;;;;;5037100;28;8978;-78
2021/08/26 04:00:07;;;;;;;;;2.00;2.00;;;;;;;;5025500;28;8879;-80
2021/08/26 04:02:36;;;;;;;;;3.25;3.25;;;;;;;;5042590;28;9671;-79
2021/08/26 04:05:05;;;;;;;;;2.00;2.00;;;;;;;;5042666;28;8931;-77
2021/08/26 04:07:32;;;;;;;;;2.75;2.75;;;;;;;;5039867;28;8883;-80
2021/08/26 04:10:00;;;;;;;;;3.00;3.00;;;;;;;;5037850;28;8873;-79
2021/08/26 04:12:27;;;;;;;;;3.75;3.75;;;;;;;;5045698;28;8999;-79
2021/08/26 04:14:55;;;;;;;;;3.50;3.00;;;;;;;;5034225;28;8864;-80
2021/08/26 04:17:22;;;;;;;;;3.00;2.00;;;;;;;;5025533;28;8994;-80
2021/08/26 04:19:51;;;;;;;;;1.75;1.00;;;;;;;;5040313;28;8919;-80
2021/08/26 04:22:19;;;;;;;;;2.00;2.00;;;;;;;;5030559;28;8865;-80
2021/08/26 04:24:46;;;;;;;;;5.00;2.25;;;;;;;;5034397;28;8875;-80
2021/08/26 04:27:13;;;;;;;;;4.50;4.50;;;;;;;;5041880;28;8887;-80
2021/08/26 04:29:41;;;;;;;;;1.75;1.75;;;;;;;;5044008;28;8881;-79
2021/08/26 04:32:08;;;;;;;;;3.50;1.75;;;;;;;;5038219;28;8784;-80
2021/08/26 04:34:35;;;;;;;;;4.00;3.25;;;;;;;;5036117;28;8888;-79
2021/08/26 04:37:04;;;;;;;;;1.75;1.75;;;;;;;;5040173;28;10029;-80
2021/08/26 04:39:32;;;;;;;;;4.00;3.00;;;;;;;;5026461;28;8867;-79
2021/08/26 04:41:59;;;;;;;;;5.75;4.00;;;;;;;;5022478;28;8871;-78
2021/08/26 04:44:28;;;;;;;;;3.00;3.00;;;;;;;;5037955;28;8872;-80
2021/08/26 04:46:55;;;;;;;;;4.25;4.25;;;;;;;;5035375;28;8938;-81
2021/08/26 04:49:22;;;;;;;;;3.00;3.00;;;;;;;;5035734;28;8895;-80
2021/08/26 04:51:50;;;;;;;;;2.75;2.75;;;;;;;;5039841;28;9050;-80
2021/08/26 04:54:19;;;;;;;;;3.75;3.75;;;;;;;;5033710;28;9652;-81
2021/08/26 04:56:46;;;;;;;;;3.25;3.25;;;;;;;;5042764;28;8896;-81
2021/08/26 04:59:13;;;;;;;;;3.00;3.00;;;;;;;;5038285;28;8861;-81
2021/08/26 05:01:41;;;;;;;;;4.00;4.00;;;;;;;;5031271;28;8843;-82
2021/08/26 05:04:08;;;;;;;;;2.75;2.75;;;;;;;;5031774;28;8879;-80
2021/08/26 05:06:35;;;;;;;;;4.75;3.00;;;;;;;;5041639;28;8873;-81
2021/08/26 05:09:03;;;;;;;;;3.75;3.75;;;;;;;;5036546;28;9033;-80
2021/08/26 05:11:32;;;;;;;;;3.75;3.75;;;;;;;;5030324;28;8867;-79
2021/08/26 05:13:59;;;;;;;;;3.00;3.00;;;;;;;;5040539;28;8891;-78
2021/08/26 05:16:27;;;;;;;;;2.25;2.25;;;;;;;;5033052;28;8868;-79
2021/08/26 05:18:54;;;;;;;;;2.00;2.00;;;;;;;;5033254;28;8891;-77
2021/08/26 05:21:21;;;;;;;;;2.75;2.75;;;;;;;;5043243;28;8877;-74
2021/08/26 05:23:49;;;;;;;;;4.25;4.25;;;;;;;;5041348;28;8932;-77
2021/08/26 05:26:16;;;;;;;;;4.00;4.00;;;;;;;;5038170;28;8892;-76
2021/08/26 05:28:46;;;;;;;;;5.25;4.00;;;;;;;;5044994;28;8861;-75
2021/08/26 05:31:14;;;;;;;;;0.00;0.00;;;;;;;;5028697;28;8840;-77
2021/08/26 05:33:41;;;;;;;;;5.25;4.00;;;;;;;;5037810;28;8983;-76
2021/08/26 05:36:09;;;;;;;;;5.00;4.00;;;;;;;;5024330;28;8872;-76
2021/08/26 05:38:36;;;;;;;;;3.50;3.50;;;;;;;;5025414;28;8876;-76
2021/08/26 05:41:03;;;;;;;;;4.00;4.00;;;;;;;;5042762;28;8885;-76
2021/08/26 05:43:30;;;;;;;;;3.25;3.25;;;;;;;;5044899;28;8894;-76
2021/08/26 05:45:59;;;;;;;;;2.25;1.75;;;;;;;;5060029;28;8877;-76
2021/08/26 05:48:26;;;;;;;;;3.50;3.50;;;;;;;;5044160;28;8914;-76
2021/08/26 05:50:54;;;;;;;;;5.25;4.00;;;;;;;;5044669;28;8865;-76
2021/08/26 05:53:21;;;;;;;;;5.00;5.00;;;;;;;;5043861;28;8891;-76
2021/08/26 05:55:48;;;;;;;;;4.00;4.00;;;;;;;;5044828;28;8892;-76
2021/08/26 05:58:15;;;;;;;;;3.00;3.00;;;;;;;;5041249;28;8869;-76
2021/08/26 06:00:43;;;;;;;;;10.25;6.75;;;;;;;;5030601;28;8809;-76
2021/08/26 06:03:12;;;;;;;;;6.00;6.00;;;;;;;;5044643;28;8881;-77
2021/08/26 06:05:39;;;;;;;;;6.75;4.50;;;;;;;;5017801;28;8975;-76
2021/08/26 06:08:07;;;;;;;;;6.00;5.25;;;;;;;;5033109;28;8953;-77
2021/08/26 06:10:36;;;;;;;;;4.50;4.50;;;;;;;;5043557;28;8875;-76
2021/08/26 06:13:04;;;;;;;;;4.00;2.50;;;;;;;;5044974;28;8939;-76
2021/08/26 06:15:31;;;;;;;;;5.75;5.75;;;;;;;;5032922;28;8975;-76
2021/08/26 06:17:59;;;;;;;;;9.25;6.25;;;;;;;;5040420;28;8867;-76
2021/08/26 06:20:27;;;;;;;;;5.00;5.00;;;;;;;;5044141;28;8979;-76
2021/08/26 06:22:55;;;;;;;;;5.75;5.00;;;;;;;;5043249;28;8878;-76
2021/08/26 06:25:22;;;;;;;;;7.50;6.25;;;;;;;;5037416;28;8873;-76
2021/08/26 06:27:49;;;;;;;;;7.00;7.00;;;;;;;;5043271;28;8869;-76
2021/08/26 06:30:17;;;;;;;;;11.25;11.25;;;;;;;;5043808;28;8877;-76
2021/08/26 06:32:44;;;;;;;;;8.00;8.00;;;;;;;;5039722;28;8886;-75
2021/08/26 06:35:12;;;;;;;;;12.00;10.00;;;;;;;;5044402;28;8865;-77
2021/08/26 06:37:40;;;;;;;;;10.25;9.75;;;;;;;;5029184;28;9002;-76
2021/08/26 06:40:09;;;;;;;;;10.00;8.00;;;;;;;;5042346;28;8872;-76
2021/08/26 06:42:36;;;;;;;;;11.00;8.00;;;;;;;;5034284;28;8896;-76
2021/08/26 06:45:04;;;;;;;;;10.75;7.50;;;;;;;;5043469;28;8950;-76
2021/08/26 06:47:31;;;;;;;;;10.00;7.25;;;;;;;;5043416;28;8865;-76
2021/08/26 06:49:58;;;;;;;;;10.75;8.75;;;;;;;;5043308;28;8877;-76
2021/08/26 06:52:25;;;;;;;;;10.25;10.25;;;;;;;;5044110;28;8904;-76
2021/08/26 06:54:54;;;;;;;;;12.50;10.25;;;;;;;;5043224;28;8873;-75
2021/08/26 06:57:24;;;;;;;;;9.25;7.50;;;;;;;;5043796;28;8881;-76
2021/08/26 06:59:51;;;;;;;;;6.25;6.25;;;;;;;;5039321;28;8925;-76
2021/08/26 07:02:18;;;;;;;;;7.75;6.00;;;;;;;;5041906;28;8952;-76
2021/08/26 07:04:46;;;;;;;;;5.50;5.50;;;;;;;;5044202;28;8872;-76
2021/08/26 07:07:13;;;;;;;;;12.25;8.25;;;;;;;;5035890;28;8893;-76
2021/08/26 07:09:40;;;;;;;;;9.75;6.25;;;;;;;;5044445;28;8899;-76
2021/08/26 07:12:09;;;;;;;;;6.75;5.50;;;;;;;;5046005;28;8877;-76
2021/08/26 07:14:36;;;;;;;;;5.25;5.25;;;;;;;;5038469;28;8978;-76
2021/08/26 07:17:04;;;;;;;;;4.25;3.25;;;;;;;;5036080;28;8899;-76
2021/08/26 07:19:31;;;;;;;;;6.50;5.25;;;;;;;;5045657;28;8921;-76
2021/08/26 07:21:58;;;;;;;;;6.50;6.50;;;;;;;;5046743;28;8865;-76
2021/08/26 07:24:25;;;;;;;;;5.75;4.25;;;;;;;;5038332;28;8957;-76
2021/08/26 07:26:53;;;;;;;;;8.00;4.75;;;;;;;;5046693;28;9035;-76
2021/08/26 07:29:21;;;;;;;;;3.25;3.25;;;;;;;;5046558;28;8923;-76
2021/08/26 07:31:48;;;;;;;;;4.00;4.00;;;;;;;;5047506;28;8919;-76
2021/08/26 07:34:16;;;;;;;;;2.25;2.25;;;;;;;;5041904;28;8903;-77
2021/08/26 07:36:43;;;;;;;;;3.50;2.75;;;;;;;;5037318;28;9699;-77
2021/08/26 07:39:10;;;;;;;;;1.25;1.25;;;;;;;;5033199;28;8875;-77
2021/08/26 07:41:38;;;;;;;;;2.75;2.75;;;;;;;;5044852;28;8885;-76
2021/08/26 07:44:05;;;;;;;;;3.25;2.50;;;;;;;;5047471;28;8873;-77
2021/08/26 07:46:34;;;;;;;;;2.00;2.00;;;;;;;;5045985;28;8873;-76
2021/08/26 07:49:02;;;;;;;;;3.00;2.00;;;;;;;;5047335;28;8893;-76
2021/08/26 07:51:29;;;;;;;;;2.80;1.00;;;;;;;;5036057;28;8861;-77
2021/08/26 07:53:57;;;;;;;;;2.40;2.00;;;;;;;;5046550;28;8871;-77
2021/08/26 07:56:24;;;;;;;;;2.60;2.60;;;;;;;;5047523;28;8853;-76
2021/08/26 07:58:51;;;;;;;;;1.20;1.20;;;;;;;;5040163;28;8880;-77
2021/08/26 08:01:19;;;;;;;;;1.00;1.00;;;;;;;;5046398;28;8823;-77
2021/08/26 08:03:47;;;;;;;;;1.80;1.80;;;;;;;;5046077;28;8861;-77
2021/08/26 08:06:16;;;;;;;;;2.80;1.40;;;;;;;;5044419;28;8907;-77
2021/08/26 08:08:44;;;;;;;;;3.00;1.00;;;;;;;;5046144;28;8877;-77
2021/08/26 08:11:11;;;;;;;;;3.00;1.40;;;;;;;;5046287;28;8881;-77
2021/08/26 08:13:38;;;;;;;;;2.00;2.00;;;;;;;;5045802;28;8991;-76
2021/08/26 08:16:06;;;;;;;;;1.80;1.80;;;;;;;;5034664;28;8885;-76
2021/08/26 08:18:33;;;;;;;;;1.60;1.60;;;;;;;;5046962;28;8875;-77
2021/08/26 08:21:02;;;;;;;;;1.00;1.00;;;;;;;;5044799;28;8991;-77
2021/08/26 08:23:30;;;;;;;;;1.40;1.00;;;;;;;;5045121;28;9777;-77
2021/08/26 08:25:57;;;;;;;;;1.40;1.40;;;;;;;;5037576;28;8865;-77
2021/08/26 08:28:25;;;;;;;;;1.40;1.00;;;;;;;;5046268;28;8915;-78
2021/08/26 08:30:53;;;;;;;;;1.00;1.00;;;;;;;;5045964;28;8790;-77
2021/08/26 08:33:20;;;;;;;;;2.20;0.60;;;;;;;;5039730;28;9729;-77
2021/08/26 08:35:47;;;;;;;;;1.80;1.80;;;;;;;;5045088;28;8881;-77
2021/08/26 08:38:16;;;;;;;;;1.00;1.00;;;;;;;;5032108;28;8897;-77
2021/08/26 08:40:47;;;;;;;;;1.00;1.00;;;;;;;;5043120;28;8872;-77
2021/08/26 08:43:15;;;;;;;;;1.40;1.40;;;;;;;;5045428;28;8893;-77
2021/08/26 08:45:45;;;;;;;;;1.60;1.60;;;;;;;;5045906;28;8944;-77
2021/08/26 08:48:13;;;;;;;;;1.40;1.40;;;;;;;;5046332;28;8900;-77
2021/08/26 08:50:42;;;;;;;;;1.00;1.00;;;;;;;;5045169;28;8911;-76
2021/08/26 08:53:13;;;;;;;;;1.60;1.60;;;;;;;;5046453;28;8893;-77
2021/08/26 08:55:44;;;;;;;;;1.80;1.80;;;;;;;;5044932;28;8888;-76
2021/08/26 08:58:11;;;;;;;;;1.60;1.60;;;;;;;;5038763;28;8872;-77
2021/08/26 09:00:39;;;;;;;;;0.00;0.00;;;;;;;;5040458;28;8845;-77
2021/08/26 09:03:06;;;;;;;;;1.00;1.00;;;;;;;;5045675;28;8884;-76
2021/08/26 09:05:54;;;;;;;;;3.00;1.80;;;;;;;;5044586;28;8871;-76
2021/08/26 09:08:23;;;;;;;;;3.00;2.00;;;;;;;;5031173;28;8884;-77
2021/08/26 09:10:54;;;;;;;;;2.00;2.00;;;;;;;;5045620;28;8885;-77
2021/08/26 09:13:31;;;;;;;;;2.00;2.00;;;;;;;;5044613;28;8887;-77
2021/08/26 09:15:59;;;;;;;;;3.00;3.00;;;;;;;;5020908;28;8891;-77
2021/08/26 09:18:26;;;;;;;;;2.00;2.00;;;;;;;;5025837;28;8888;-78
2021/08/26 09:20:55;;;;;;;;;3.80;3.80;;;;;;;;5024505;28;8876;-77
2021/08/26 09:23:24;;;;;;;;;3.60;2.00;;;;;;;;5025797;28;8867;-78
2021/08/26 09:25:56;;;;;;;;;4.60;3.00;;;;;;;;5024711;28;9125;-78
2021/08/26 09:28:30;;;;;;;;;3.00;3.00;;;;;;;;5045560;28;8895;-78
2021/08/26 09:31:15;;;;;;;;;1.00;1.00;;;;;;;;5043662;28;8770;-78
2021/08/26 09:33:50;;;;;;;;;3.00;3.00;;;;;;;;5037698;28;8919;-78
2021/08/26 09:36:19;;;;;;;;;4.00;3.00;;;;;;;;5041841;28;8861;-78
2021/08/26 09:38:51;;;;;;;;;4.20;2.40;;;;;;;;5033780;28;8869;-78
2021/08/26 09:41:36;;;;;;;;;3.80;2.60;;;;;;;;5045356;28;9008;-78
2021/08/26 09:44:04;;;;;;;;;2.20;2.20;;;;;;;;5044808;28;8930;-78
2021/08/26 09:46:32;;;;;;;;;3.60;3.60;;;;;;;;5044791;28;8884;-78
2021/08/26 09:49:04;;;;;;;;;3.00;3.00;;;;;;;;5039499;28;8998;-77
2021/08/26 09:51:31;;;;;;;;;2.60;2.60;;;;;;;;5044047;28;8893;-78
2021/08/26 09:53:59;;;;;;;;;3.20;2.20;;;;;;;;5045263;28;8967;-78
2021/08/26 09:56:39;;;;;;;;;2.00;2.00;;;;;;;;5043854;28;8873;-78
2021/08/26 09:59:06;;;;;;;;;2.40;2.40;;;;;;;;5038826;28;8869;-78
2021/08/26 10:01:37;;;;;;;;;2.00;2.00;;;;;;;;5044123;28;9603;-78
2021/08/26 10:04:20;;;;;;;;;2.00;2.00;;;;;;;;5044480;28;9663;-78
2021/08/26 10:06:47;;;;;;;;;3.20;2.40;;;;;;;;5032330;28;8874;-78
2021/08/26 10:09:15;;;;;;;;;3.80;3.80;;;;;;;;5042246;28;8891;-78
2021/08/26 10:11:45;;;;;;;;;2.60;2.60;;;;;;;;5044622;28;9532;-78
2021/08/26 10:14:12;;;;;;;;;2.00;2.00;;;;;;;;5036341;28;8872;-78
2021/08/26 10:16:40;;;;;;;;;4.80;4.00;;;;;;;;5038251;28;8869;-78
2021/08/26 10:19:08;;;;;;;;;3.00;3.00;;;;;;;;5044433;28;8929;-78
2021/08/26 10:21:35;;;;;;;;;3.60;3.60;;;;;;;;5043670;28;8966;-79
2021/08/26 10:24:03;;;;;;;;;2.80;2.00;;;;;;;;5033242;28;9708;-78
2021/08/26 10:26:31;;;;;;;;;3.60;2.20;;;;;;;;5038183;28;9683;-79
2021/08/26 10:29:00;;;;;;;;;3.00;3.00;;;;;;;;5044509;28;9008;-78
2021/08/26 10:31:29;;;;;;;;;5.60;3.20;;;;;;;;5040651;28;8848;-78
2021/08/26 10:34:10;;;;;;;;;4.80;4.80;;;;;;;;5031487;28;8907;-77
2021/08/26 10:36:45;;;;;;;;;1.80;1.80;;;;;;;;5040542;28;8852;-78
2021/08/26 10:39:30;;;;;;;;;3.20;3.20;;;;;;;;5029615;28;8873;-78
2021/08/26 10:41:57;;;;;;;;;4.60;3.00;;;;;;;;5015908;28;8895;-75
2021/08/26 10:44:59;;;;;;;;;4.20;3.00;;;;;;;;5032581;28;8943;-77
2021/08/26 10:48:04;;;;;;;;;4.00;2.00;;;;;;;;5031589;28;8860;-78
2021/08/26 10:50:35;;;;;;;;;4.00;3.80;;;;;;;;5029850;28;8857;-77
2021/08/26 10:53:04;;;;;;;;;1.20;1.20;;;;;;;;5040051;28;8865;-77
2021/08/26 10:55:38;;;;;;;;;3.60;3.00;;;;;;;;5044286;28;8849;-78
2021/08/26 10:58:37;;;;;;;;;2.00;1.80;;;;;;;;5035605;28;8985;-78
2021/08/26 11:01:08;;;;;;;;;2.00;2.00;;;;;;;;5041277;28;8813;-77
2021/08/26 11:03:56;;;;;;;;;2.80;2.20;;;;;;;;5044971;28;8905;-79
2021/08/26 11:06:40;;;;;;;;;2.20;2.20;;;;;;;;5031543;28;8881;-79
2021/08/26 11:09:33;;;;;;;;;2.40;2.40;;;;;;;;5043298;28;8884;-79
2021/08/26 11:12:04;;;;;;;;;4.40;2.00;;;;;;;;5031768;28;8997;-76
2021/08/26 11:14:34;;;;;;;;;3.00;3.00;;;;;;;;5032904;28;8880;-77
2021/08/26 11:17:05;;;;;;;;;1.80;1.80;;;;;;;;5040605;28;8943;-77
2021/08/26 11:19:35;;;;;;;;;2.00;2.00;;;;;;;;5043007;28;8872;-80
2021/08/26 11:22:05;;;;;;;;;3.20;3.00;;;;;;;;5043408;28;8912;-76
2021/08/26 11:24:56;;;;;;;;;2.00;2.00;;;;;;;;5028018;28;8867;-75
2021/08/26 11:27:31;;;;;;;;;2.00;2.00;;;;;;;;5022321;28;8991;-77
2021/08/26 11:29:59;;;;;;;;;2.60;2.60;;;;;;;;5036955;28;8869;-76
2021/08/26 11:32:28;;;;;;;;;2.80;2.40;;;;;;;;5045565;28;8930;-76
2021/08/26 11:34:59;;;;;;;;;2.20;2.20;;;;;;;;5039898;28;8873;-75
2021/08/26 11:37:29;;;;;;;;;4.40;3.20;;;;;;;;5031786;28;8855;-76
2021/08/26 11:39:59;;;;;;;;;3.40;3.40;;;;;;;;5033090;28;9003;-76
2021/08/26 11:42:34;;;;;;;;;4.00;4.00;;;;;;;;5033180;28;8861;-76
2021/08/26 11:45:10;;;;;;;;;2.20;2.20;;;;;;;;5018421;28;8901;-77
2021/08/26 11:47:43;;;;;;;;;4.00;2.60;;;;;;;;5043136;28;8949;-77
2021/08/26 11:50:16;;;;;;;;;3.20;2.00;;;;;;;;5043219;28;8893;-77
2021/08/26 11:52:44;;;;;;;;;2.20;2.20;;;;;;;;5042302;28;8865;-77
2021/08/26 11:55:11;;;;;;;;;3.80;3.20;;;;;;;;5043625;28;8873;-77
2021/08/26 11:57:39;;;;;;;;;2.40;2.40;;;;;;;;5046020;28;8861;-77
2021/08/26 12:00:15;;;;;;;;;4.40;4.40;;;;;;;;5041149;28;8893;-77
2021/08/26 12:02:50;;;;;;;;;4.80;4.40;;;;;;;;5045814;28;8999;-77
2021/08/26 12:05:17;;;;;;;;;3.60;3.60;;;;;;;;5038940;28;8871;-76
2021/08/26 12:07:46;;;;;;;;;4.60;4.00;;;;;;;;5035197;28;8853;-77
2021/08/26 12:10:19;;;;;;;;;4.40;3.40;;;;;;;;5045994;28;9007;-77
2021/08/26 12:12:56;;;;;;;;;2.00;2.00;;;;;;;;5045736;28;8903;-77
2021/08/26 12:15:26;;;;;;;;;5.20;3.60;;;;;;;;5034369;28;8877;-77
2021/08/26 12:18:09;;;;;;;;;3.80;2.60;;;;;;;;5047003;28;8869;-77
2021/08/26 12:20:41;;;;;;;;;3.60;3.60;;;;;;;;5046352;28;9001;-77
2021/08/26 12:23:09;;;;;;;;;4.80;3.20;;;;;;;;5077763;28;8854;-77
2021/08/26 12:25:39;;;;;;;;;3.60;3.40;;;;;;;;5035668;28;8976;-77
2021/08/26 12:28:08;;;;;;;;;3.00;3.00;;;;;;;;5036618;28;8872;-77
2021/08/26 12:30:38;;;;;;;;;2.80;2.60;;;;;;;;5046034;28;8801;-77
2021/08/26 12:33:12;;;;;;;;;3.60;3.00;;;;;;;;5038103;28;8894;-77
2021/08/26 12:35:51;;;;;;;;;1.80;1.80;;;;;;;;5046387;28;8903;-77
2021/08/26 12:38:33;;;;;;;;;3.80;3.80;;;;;;;;5032472;28;8869;-76
2021/08/26 12:41:01;;;;;;;;;4.20;4.00;;;;;;;;5034514;28;8965;-77
2021/08/26 12:43:44;;;;;;;;;2.20;2.20;;;;;;;;5046800;28;8975;-77
2021/08/26 12:46:13;;;;;;;;;0.60;0.60;;;;;;;;5043875;28;8872;-77
2021/08/26 12:48:42;;;;;;;;;1.80;1.80;;;;;;;;5046265;28;10126;-76
2021/08/26 12:51:21;;;;;;;;;1.60;1.60;;;;;;;;5045985;28;8845;-76
2021/08/26 12:53:51;;;;;;;;;2.00;2.00;;;;;;;;5060214;28;8893;-77
2021/08/26 12:56:20;;;;;;;;;4.00;2.00;;;;;;;;5045268;28;8881;-77
2021/08/26 12:58:55;;;;;;;;;3.80;2.00;;;;;;;;5038141;28;8895;-77
2021/08/26 13:01:24;;;;;;;;;1.20;1.20;;;;;;;;5045553;28;8867;-77
2021/08/26 13:03:55;;;;;;;;;1.20;1.20;;;;;;;;5045565;28;8899;-77
2021/08/26 13:06:40;;;;;;;;;1.60;0.80;;;;;;;;5034243;28;8871;-77
2021/08/26 13:09:10;;;;;;;;;2.80;1.60;;;;;;;;5044038;28;8895;-77
2021/08/26 13:11:56;;;;;;;;;1.80;1.80;;;;;;;;5044740;28;8901;-77
2021/08/26 13:14:24;;;;;;;;;1.80;1.80;;;;;;;;5025907;28;8860;-77
2021/08/26 13:16:51;;;;;;;;;2.80;2.80;;;;;;;;5041727;28;8865;-77
2021/08/26 13:19:20;;;;;;;;;2.40;1.80;;;;;;;;5044692;28;8881;-77
2021/08/26 13:21:48;;;;;;;;;5.20;2.80;;;;;;;;5044566;28;8907;-77
2021/08/26 13:24:15;;;;;;;;;2.80;2.60;;;;;;;;5036535;28;8978;-76
2021/08/26 13:26:43;;;;;;;;;1.00;1.00;;;;;;;;5042571;28;8903;-76
2021/08/26 13:29:10;;;;;;;;;0.00;0.00;;;;;;;;5044421;28;8996;-77
2021/08/26 13:31:38;;;;;;;;;2.00;2.00;;;;;;;;5042945;28;8802;-77
2021/08/26 13:34:05;;;;;;;;;3.00;1.80;;;;;;;;5031832;28;8863;-77
2021/08/26 13:36:35;;;;;;;;;1.00;1.00;;;;;;;;5038163;28;8860;-77
2021/08/26 13:39:03;;;;;;;;;1.60;1.60;;;;;;;;5037602;28;8934;-77
2021/08/26 13:41:30;;;;;;;;;1.80;1.80;;;;;;;;5042822;28;8877;-77
2021/08/26 13:43:58;;;;;;;;;1.80;1.80;;;;;;;;5042277;28;8887;-77
2021/08/26 13:46:25;;;;;;;;;1.80;1.80;;;;;;;;5041276;28;8940;-77
2021/08/26 13:48:52;;;;;;;;;2.40;1.80;;;;;;;;5038142;28;8879;-77
2021/08/26 13:51:20;;;;;;;;;1.60;1.40;;;;;;;;5026096;28;9643;-77
2021/08/26 13:53:49;;;;;;;;;1.20;1.20;;;;;;;;5044785;28;8891;-77
2021/08/26 13:56:16;;;;;;;;;2.00;2.00;;;;;;;;5045012;28;8881;-77
2021/08/26 13:58:44;;;;;;;;;2.60;2.60;;;;;;;;5038719;28;8892;-77
2021/08/26 14:01:12;;;;;;;;;3.00;3.00;;;;;;;;5044138;28;8810;-77
2021/08/26 14:03:40;;;;;;;;;2.80;2.00;;;;;;;;5041498;28;8857;-77
2021/08/26 14:06:10;;;;;;;;;3.80;3.80;;;;;;;;5037335;28;8882;-76
2021/08/26 14:08:37;;;;;;;;;5.00;5.00;;;;;;;;5038845;28;8889;-77
2021/08/26 14:11:06;;;;;;;;;3.40;3.40;;;;;;;;5044619;28;8869;-77
2021/08/26 14:13:34;;;;;;;;;2.60;2.60;;;;;;;;5043344;28;8861;-76
2021/08/26 14:16:02;;;;;;;;;7.80;4.00;;;;;;;;5032398;28;9780;-77
2021/08/26 14:18:29;;;;;;;;;2.60;2.60;;;;;;;;5044460;28;8869;-77
2021/08/26 14:20:56;;;;;;;;;4.00;4.00;;;;;;;;5038061;28;8883;-77
2021/08/26 14:23:24;;;;;;;;;4.80;4.80;;;;;;;;5040753;28;8900;-77
2021/08/26 14:25:51;;;;;;;;;5.80;5.80;;;;;;;;5023396;28;8885;-77
2021/08/26 14:28:20;;;;;;;;;4.40;4.40;;;;;;;;5044515;28;8987;-77
2021/08/26 14:30:48;;;;;;;;;4.80;4.80;;;;;;;;5043273;28;8810;-77
2021/08/26 14:33:15;;;;;;;;;4.40;4.40;;;;;;;;5033239;28;9637;-77
2021/08/26 14:35:43;;;;;;;;;5.00;5.00;;;;;;;;5034094;28;8883;-77
2021/08/26 14:38:12;;;;;;;;;4.00;4.00;;;;;;;;5028741;28;8966;-76
2021/08/26 14:40:39;;;;;;;;;2.80;2.80;;;;;;;;5042995;28;8865;-76
2021/08/26 14:43:07;;;;;;;;;3.80;3.60;;;;;;;;5043171;28;8877;-77
2021/08/26 14:45:36;;;;;;;;;5.40;4.20;;;;;;;;5044470;28;8879;-77
2021/08/26 14:48:05;;;;;;;;;3.80;3.80;;;;;;;;5043786;28;8880;-77
2021/08/26 14:50:34;;;;;;;;;3.60;3.60;;;;;;;;5043614;28;9023;-77
2021/08/26 14:53:02;;;;;;;;;4.60;4.00;;;;;;;;5044205;28;8845;-77
2021/08/26 14:55:29;;;;;;;;;3.80;3.60;;;;;;;;5033064;28;8872;-77
2021/08/26 14:57:57;;;;;;;;;4.00;4.00;;;;;;;;5044343;28;8880;-77
2021/08/26 15:00:24;;;;;;;;;4.80;4.80;;;;;;;;5036538;28;8831;-77
2021/08/26 15:02:53;;;;;;;;;2.60;2.60;;;;;;;;5044002;28;8885;-77
2021/08/26 15:05:21;;;;;;;;;6.20;4.60;;;;;;;;5042338;28;8891;-77
2021/08/26 15:07:48;;;;;;;;;5.20;4.80;;;;;;;;5031883;28;8886;-77
2021/08/26 15:10:16;;;;;;;;;5.60;4.60;;;;;;;;5043972;28;8881;-76
2021/08/26 15:12:46;;;;;;;;;4.40;4.40;;;;;;;;5042292;28;8943;-76